Time;durP1;ratioP1;P1;durP2;ratioP2;P2;SDS_P1;SDS_P2;PMS_P1;PMS_P2;Temp;Humidity;BMP_temperature;BMP_pressure;BME280_temperature;BME280_humidity;BME280_pressure;Samples;Min_cycle;Max_cycle;Signal;HPM_P1;HPM_P2
2021/03/18 00:00:12;;;;;;;;;;;;;;;;;;2090828;28;20421;-75
2021/03/18 00:01:13;;;;;;;;;;;;;;;;;;2083093;28;19928;-74
2021/03/18 00:02:15;;;;;;;;;;;;;;;;;;2091343;28;19921;-73
2021/03/18 00:03:18;;;;;;;;;;;;;;;;;;2099389;28;20020;-75
2021/03/18 00:04:19;;;;;;;;;;;;;;;;;;2099628;28;19920;-75
2021/03/18 00:05:20;;;;;;;;;;;;;;;;;;2092309;28;20373;-76
2021/03/18 00:06:21;;;;;;;;;;;;;;;;;;2093287;28;20020;-75
2021/03/18 00:07:22;;;;;;;;;;;;;;;;;;2091319;28;19928;-75
2021/03/18 00:08:24;;;;;;;;;;;;;;;;;;2099117;28;19966;-75
2021/03/18 00:09:25;;;;;;;;;;;;;;;;;;2099155;28;20007;-74
2021/03/18 00:10:27;;;;;;;;;;;;;;;;;;2099226;28;19920;-73
2021/03/18 00:11:28;;;;;;;;;;;;;;;;;;2098987;28;20407;-73
2021/03/18 00:12:29;;;;;;;;;;;;;;;;;;2091427;28;20302;-73
2021/03/18 00:13:30;;;;;;;;;;;;;;;;;;2091548;28;19921;-74
2021/03/18 00:14:32;;;;;;;;;;;;;;;;;;2091803;28;19920;-73
2021/03/18 00:15:34;;;;;;;;;;;;;;;;;;2091556;28;20030;-73
2021/03/18 00:16:35;;;;;;;;;;;;;;;;;;2099089;28;19928;-73
2021/03/18 00:17:36;;;;;;;;;;;;;;;;;;2099005;28;19921;-74
2021/03/18 00:18:42;;;;;;;;;;;;;;;;;;2099058;28;19924;-74
2021/03/18 00:19:43;;;;;;;;;;;;;;;;;;2098854;28;20070;-74
2021/03/18 00:20:44;;;;;;;;;;;;;;;;;;2091493;28;19920;-73
2021/03/18 00:21:45;;;;;;;;;;;;;;;;;;2090766;28;20430;-74
2021/03/18 00:22:47;;;;;;;;;;;;;;;;;;2090657;28;19982;-73
2021/03/18 00:23:49;;;;;;;;;;;;;;;;;;2091481;28;20015;-74
2021/03/18 00:24:50;;;;;;;;;;;;;;;;;;2091474;28;19973;-74
2021/03/18 00:25:51;;;;;;;;;;;;;;;;;;2090892;28;19921;-74
2021/03/18 00:26:52;;;;;;;;;;;;;;;;;;2082766;28;19925;-74
2021/03/18 00:27:53;;;;;;;;;;;;;;;;;;2090912;28;19927;-74
2021/03/18 00:28:55;;;;;;;;;;;;;;;;;;2098853;28;20003;-74
2021/03/18 00:29:56;;;;;;;;;;;;;;;;;;2099125;28;19965;-75
2021/03/18 00:30:57;;;;;;;;;;;;;;;;;;2090711;28;19983;-76
2021/03/18 00:31:59;;;;;;;;;;;;;;;;;;2083075;28;20012;-76
2021/03/18 00:33:00;;;;;;;;;;;;;;;;;;2090799;28;19921;-74
2021/03/18 00:34:02;;;;;;;;;;;;;;;;;;2098973;28;19928;-75
2021/03/18 00:35:04;;;;;;;;;;;;;;;;;;2082680;28;19921;-75
2021/03/18 00:36:05;;;;;;;;;;;;;;;;;;2083213;28;19921;-74
2021/03/18 00:37:06;;;;;;;;;;;;;;;;;;2091033;28;19966;-75
2021/03/18 00:38:07;;;;;;;;;;;;;;;;;;2090920;28;20413;-74
2021/03/18 00:39:09;;;;;;;;;;;;;;;;;;2091677;28;20011;-75
2021/03/18 00:40:13;;;;;;;;;;;;;;;;;;2091212;28;19921;-75
2021/03/18 00:41:14;;;;;;;;;;;;;;;;;;2091318;28;19920;-74
2021/03/18 00:42:15;;;;;;;;;;;;;;;;;;2091202;28;20328;-74
2021/03/18 00:43:17;;;;;;;;;;;;;;;;;;2098777;28;19951;-74
2021/03/18 00:44:18;;;;;;;;;;;;;;;;;;2098576;28;19920;-74
2021/03/18 00:45:20;;;;;;;;;;;;;;;;;;2091283;28;19924;-76
2021/03/18 00:46:21;;;;;;;;;;;;;;;;;;2099055;28;20003;-78
2021/03/18 00:47:22;;;;;;;;;;;;;;;;;;2098873;28;19920;-74
2021/03/18 00:48:24;;;;;;;;;;;;;;;;;;2091276;28;20378;-75
2021/03/18 00:49:25;;;;;;;;;;;;;;;;;;2091626;28;19921;-73
2021/03/18 00:50:31;;;;;;;;;;;;;;;;;;2091267;28;19921;-76
2021/03/18 00:51:32;;;;;;;;;;;;;;;;;;2091114;28;19921;-76
2021/03/18 00:52:33;;;;;;;;;;;;;;;;;;2091266;28;19943;-75
2021/03/18 00:53:38;;;;;;;;;;;;;;;;;;2090316;28;20376;-75
2021/03/18 00:54:39;;;;;;;;;;;;;;;;;;2090807;28;20020;-77
2021/03/18 00:55:40;;;;;;;;;;;;;;;;;;2091451;28;20413;-76
2021/03/18 00:56:41;;;;;;;;;;;;;;;;;;2091039;28;19932;-77
2021/03/18 00:57:42;;;;;;;;;;;;;;;;;;2091106;28;19925;-76
2021/03/18 00:58:44;;;;;;;;;;;;;;;;;;2091203;28;20356;-77
2021/03/18 00:59:45;;;;;;;;;;;;;;;;;;2091158;28;20383;-77
2021/03/18 01:00:48;;;;;;;;;;;;;;;;;;2091507;28;19940;-76
2021/03/18 01:01:49;;;;;;;;;;;;;;;;;;2098888;28;19921;-76
2021/03/18 01:02:50;;;;;;;;;;;;;;;;;;2098545;28;19920;-75
2021/03/18 01:03:52;;;;;;;;;;;;;;;;;;2090994;28;19920;-75
2021/03/18 01:04:53;;;;;;;;;;;;;;;;;;2091114;28;20320;-75
2021/03/18 01:05:56;;;;;;;;;;;;;;;;;;2091041;28;19928;-75
2021/03/18 01:06:57;;;;;;;;;;;;;;;;;;2098609;28;20023;-76
2021/03/18 01:07:58;;;;;;;;;;;;;;;;;;2098642;28;20323;-75
2021/03/18 01:08:59;;;;;;;;;;;;;;;;;;2091502;28;20015;-75
2021/03/18 01:10:00;;;;;;;;;;;;;;;;;;2091448;28;19964;-73
2021/03/18 01:11:01;;;;;;;;;;;;;;;;;;2098780;28;19927;-74
2021/03/18 01:12:02;;;;;;;;;;;;;;;;;;2099084;28;19920;-75
2021/03/18 01:13:03;;;;;;;;;;;;;;;;;;2098667;28;19921;-74
2021/03/18 01:14:06;;;;;;;;;;;;;;;;;;2090389;28;20393;-75
2021/03/18 01:15:07;;;;;;;;;;;;;;;;;;2090345;28;20285;-74
2021/03/18 01:16:21;;;;;;;;;;;;;;;;;;2090823;28;20122;-74
2021/03/18 01:17:22;;;;;;;;;;;;;;;;;;2090522;28;20314;-76
2021/03/18 01:18:26;;;;;;;;;;;;;;;;;;2099098;28;20010;-76
2021/03/18 01:19:27;;;;;;;;;;;;;;;;;;2098662;28;19932;-75
2021/03/18 01:20:28;;;;;;;;;;;;;;;;;;2099097;28;20240;-77
2021/03/18 01:21:35;;;;;;;;;;;;;;;;;;2098298;28;19928;-76
2021/03/18 01:22:36;;;;;;;;;;;;;;;;;;2090465;28;20011;-76
2021/03/18 01:23:37;;;;;;;;;;;;;;;;;;2098763;28;19925;-76
2021/03/18 01:24:38;;;;;;;;;;;;;;;;;;2098446;28;19924;-77
2021/03/18 01:25:39;;;;;;;;;;;;;;;;;;2082179;28;19921;-77
2021/03/18 01:26:41;;;;;;;;;;;;;;;;;;2082302;28;19928;-74
2021/03/18 01:27:42;;;;;;;;;;;;;;;;;;2090278;28;19924;-75
2021/03/18 01:28:44;;;;;;;;;;;;;;;;;;2090271;28;20374;-72
2021/03/18 01:29:45;;;;;;;;;;;;;;;;;;2090310;28;20034;-72
2021/03/18 01:30:46;;;;;;;;;;;;;;;;;;2098667;28;19920;-72
2021/03/18 01:31:47;;;;;;;;;;;;;;;;;;2098469;28;19921;-71
2021/03/18 01:32:48;;;;;;;;;;;;;;;;;;2090199;28;20034;-72
2021/03/18 01:33:49;;;;;;;;;;;;;;;;;;2090373;28;19925;-72
2021/03/18 01:34:50;;;;;;;;;;;;;;;;;;2090227;28;19921;-73
2021/03/18 01:35:51;;;;;;;;;;;;;;;;;;2090840;28;19921;-73
2021/03/18 01:36:52;;;;;;;;;;;;;;;;;;2091610;28;19920;-73
2021/03/18 01:37:53;;;;;;;;;;;;;;;;;;2090702;28;19920;-73
2021/03/18 01:38:54;;;;;;;;;;;;;;;;;;2090225;28;19921;-73
2021/03/18 01:39:55;;;;;;;;;;;;;;;;;;2090880;28;19968;-73
2021/03/18 01:40:57;;;;;;;;;;;;;;;;;;2091140;28;19957;-73
2021/03/18 01:41:58;;;;;;;;;;;;;;;;;;2091147;28;19921;-73
2021/03/18 01:42:59;;;;;;;;;;;;;;;;;;2090770;28;19943;-72
2021/03/18 01:44:00;;;;;;;;;;;;;;;;;;2091180;28;19921;-73
2021/03/18 01:45:03;;;;;;;;;;;;;;;;;;2090747;28;20015;-72
2021/03/18 01:46:04;;;;;;;;;;;;;;;;;;2091194;28;19921;-72
2021/03/18 01:47:05;;;;;;;;;;;;;;;;;;2098387;28;19966;-73
2021/03/18 01:48:08;;;;;;;;;;;;;;;;;;2098738;28;19921;-73
2021/03/18 01:49:09;;;;;;;;;;;;;;;;;;2090568;28;20023;-72
2021/03/18 01:50:11;;;;;;;;;;;;;;;;;;2090980;28;19925;-72
2021/03/18 01:51:13;;;;;;;;;;;;;;;;;;2098332;28;19975;-72
2021/03/18 01:52:14;;;;;;;;;;;;;;;;;;2098347;28;20011;-73
2021/03/18 01:53:15;;;;;;;;;;;;;;;;;;2090076;28;19928;-71
2021/03/18 01:54:17;;;;;;;;;;;;;;;;;;2098971;28;20302;-72
2021/03/18 01:55:38;;;;;;;;;;;;;;;;;;2098299;28;20023;-72
2021/03/18 01:56:39;;;;;;;;;;;;;;;;;;2090485;28;19921;-72
2021/03/18 01:57:40;;;;;;;;;;;;;;;;;;2090686;28;19921;-73
2021/03/18 01:58:42;;;;;;;;;;;;;;;;;;2098407;28;19970;-72
2021/03/18 01:59:43;;;;;;;;;;;;;;;;;;2098335;28;19924;-73
2021/03/18 02:00:45;;;;;;;;;;;;;;;;;;2098383;28;19920;-72
2021/03/18 02:01:47;;;;;;;;;;;;;;;;;;2098106;28;20011;-72
2021/03/18 02:02:48;;;;;;;;;;;;;;;;;;2082308;28;19951;-72
2021/03/18 02:03:49;;;;;;;;;;;;;;;;;;2090430;28;20287;-73
2021/03/18 02:04:50;;;;;;;;;;;;;;;;;;2098370;28;20359;-73
2021/03/18 02:05:52;;;;;;;;;;;;;;;;;;2090643;28;19920;-73
2021/03/18 02:06:53;;;;;;;;;;;;;;;;;;2090680;28;20070;-74
2021/03/18 02:07:54;;;;;;;;;;;;;;;;;;2090758;28;20023;-73
2021/03/18 02:08:55;;;;;;;;;;;;;;;;;;2090595;28;19921;-73
2021/03/18 02:09:56;;;;;;;;;;;;;;;;;;2081990;28;20265;-73
2021/03/18 02:10:57;;;;;;;;;;;;;;;;;;2090135;28;19970;-73
2021/03/18 02:11:59;;;;;;;;;;;;;;;;;;2090639;28;19928;-73
2021/03/18 02:13:00;;;;;;;;;;;;;;;;;;2090782;28;19921;-72
2021/03/18 02:14:01;;;;;;;;;;;;;;;;;;2098417;28;19921;-72
2021/03/18 02:15:04;;;;;;;;;;;;;;;;;;2098205;28;19970;-73
2021/03/18 02:16:07;;;;;;;;;;;;;;;;;;2090450;28;19970;-73
2021/03/18 02:17:08;;;;;;;;;;;;;;;;;;2091101;28;19975;-73
2021/03/18 02:18:15;;;;;;;;;;;;;;;;;;2098728;28;19920;-72
2021/03/18 02:19:33;;;;;;;;;;;;;;;;;;2097591;28;19970;-74
2021/03/18 02:20:52;;;;;;;;;;;;;;;;;;2098402;28;20390;-73
2021/03/18 02:22:04;;;;;;;;;;;;;;;;;;2096121;28;20003;-73
2021/03/18 02:23:05;;;;;;;;;;;;;;;;;;2091130;28;19956;-73
2021/03/18 02:24:28;;;;;;;;;;;;;;;;;;2090644;28;19920;-73
2021/03/18 02:25:34;;;;;;;;;;;;;;;;;;2090729;28;19921;-73
2021/03/18 02:26:35;;;;;;;;;;;;;;;;;;2090641;28;20399;-72
2021/03/18 02:28:04;;;;;;;;;;;;;;;;;;2098247;28;19932;-72
2021/03/18 02:29:24;;;;;;;;;;;;;;;;;;2094706;28;19921;-72
2021/03/18 02:30:37;;;;;;;;;;;;;;;;;;2084850;28;19921;-73
2021/03/18 02:31:59;;;;;;;;;;;;;;;;;;2090271;28;19943;-73
2021/03/18 02:33:18;;;;;;;;;;;;;;;;;;2098413;28;20287;-73
2021/03/18 02:34:28;;;;;;;;;;;;;;;;;;2095606;28;19992;-73
2021/03/18 02:35:42;;;;;;;;;;;;;;;;;;2090174;28;19921;-73
2021/03/18 02:36:47;;;;;;;;;;;;;;;;;;2091118;28;20011;-73
2021/03/18 02:38:08;;;;;;;;;;;;;;;;;;2090551;28;20007;-72
2021/03/18 02:39:12;;;;;;;;;;;;;;;;;;2090566;28;20018;-73
2021/03/18 02:40:16;;;;;;;;;;;;;;;;;;2098751;28;19973;-73
2021/03/18 02:41:20;;;;;;;;;;;;;;;;;;2097978;28;20023;-73
2021/03/18 02:42:22;;;;;;;;;;;;;;;;;;2098553;28;19956;-73
2021/03/18 02:43:23;;;;;;;;;;;;;;;;;;2098038;28;19970;-72
2021/03/18 02:44:24;;;;;;;;;;;;;;;;;;2082122;28;19966;-72
2021/03/18 02:45:30;;;;;;;;;;;;;;;;;;2090276;28;19921;-72
2021/03/18 02:46:32;;;;;;;;;;;;;;;;;;2090570;28;20313;-72
2021/03/18 02:47:35;;;;;;;;;;;;;;;;;;2090419;28;19921;-73
2021/03/18 02:48:38;;;;;;;;;;;;;;;;;;2090690;28;20431;-73
2021/03/18 02:49:44;;;;;;;;;;;;;;;;;;2090407;28;19968;-73
2021/03/18 02:50:45;;;;;;;;;;;;;;;;;;2081847;28;19921;-73
2021/03/18 02:51:47;;;;;;;;;;;;;;;;;;2081902;28;20417;-73
2021/03/18 02:52:49;;;;;;;;;;;;;;;;;;2098202;28;19964;-72
2021/03/18 02:53:50;;;;;;;;;;;;;;;;;;2081869;28;20047;-73
2021/03/18 02:54:52;;;;;;;;;;;;;;;;;;2074246;28;19965;-73
2021/03/18 02:55:53;;;;;;;;;;;;;;;;;;2090188;28;19969;-73
2021/03/18 02:56:56;;;;;;;;;;;;;;;;;;2098028;28;20381;-73
2021/03/18 02:57:59;;;;;;;;;;;;;;;;;;2090593;28;20375;-72
2021/03/18 02:59:00;;;;;;;;;;;;;;;;;;2090626;28;19921;-72
2021/03/18 03:00:09;;;;;;;;;;;;;;;;;;2089917;28;19943;-73
2021/03/18 03:01:10;;;;;;;;;;;;;;;;;;2091768;28;19928;-73
2021/03/18 03:02:17;;;;;;;;;;;;;;;;;;2092031;28;19921;-72
2021/03/18 03:03:19;;;;;;;;;;;;;;;;;;2092253;28;20294;-73
2021/03/18 03:04:20;;;;;;;;;;;;;;;;;;2092122;28;19921;-72
2021/03/18 03:05:22;;;;;;;;;;;;;;;;;;2099696;28;19946;-72
2021/03/18 03:06:24;;;;;;;;;;;;;;;;;;2091383;28;20379;-72
2021/03/18 03:07:25;;;;;;;;;;;;;;;;;;2091275;28;19921;-73
2021/03/18 03:08:27;;;;;;;;;;;;;;;;;;2099976;28;20014;-72
2021/03/18 03:09:29;;;;;;;;;;;;;;;;;;2099887;28;19920;-72
2021/03/18 03:10:31;;;;;;;;;;;;;;;;;;2092114;28;19921;-72
2021/03/18 03:11:32;;;;;;;;;;;;;;;;;;2091929;28;20360;-72
2021/03/18 03:12:34;;;;;;;;;;;;;;;;;;2099566;28;20387;-72
2021/03/18 03:13:37;;;;;;;;;;;;;;;;;;2099376;28;19920;-72
2021/03/18 03:14:38;;;;;;;;;;;;;;;;;;2099691;28;20380;-73
2021/03/18 03:15:39;;;;;;;;;;;;;;;;;;2099592;28;19921;-73
2021/03/18 03:16:40;;;;;;;;;;;;;;;;;;2099594;28;19924;-73
2021/03/18 03:17:42;;;;;;;;;;;;;;;;;;2099540;28;19932;-73
2021/03/18 03:18:44;;;;;;;;;;;;;;;;;;2083238;28;19921;-73
2021/03/18 03:19:45;;;;;;;;;;;;;;;;;;2091356;28;19986;-73
2021/03/18 03:20:46;;;;;;;;;;;;;;;;;;2092307;28;19966;-73
2021/03/18 03:21:48;;;;;;;;;;;;;;;;;;2099507;28;20294;-73
2021/03/18 03:22:50;;;;;;;;;;;;;;;;;;2099174;28;20007;-72
2021/03/18 03:23:51;;;;;;;;;;;;;;;;;;2091499;28;19927;-73
2021/03/18 03:24:53;;;;;;;;;;;;;;;;;;2092147;28;20007;-73
2021/03/18 03:25:56;;;;;;;;;;;;;;;;;;2091909;28;20253;-73
2021/03/18 03:26:57;;;;;;;;;;;;;;;;;;2092124;28;19925;-73
2021/03/18 03:27:58;;;;;;;;;;;;;;;;;;2099623;28;19978;-73
2021/03/18 03:29:00;;;;;;;;;;;;;;;;;;2099381;28;19969;-73
2021/03/18 03:30:04;;;;;;;;;;;;;;;;;;2091859;28;19921;-73
2021/03/18 03:31:05;;;;;;;;;;;;;;;;;;2091700;28;20256;-73
2021/03/18 03:32:07;;;;;;;;;;;;;;;;;;2099792;28;19927;-73
2021/03/18 03:33:09;;;;;;;;;;;;;;;;;;2099135;28;20019;-73
2021/03/18 03:34:10;;;;;;;;;;;;;;;;;;2091738;28;19920;-73
2021/03/18 03:35:11;;;;;;;;;;;;;;;;;;2091943;28;19921;-73
2021/03/18 03:36:12;;;;;;;;;;;;;;;;;;2091822;28;19921;-73
2021/03/18 03:37:13;;;;;;;;;;;;;;;;;;2091777;28;19921;-73
2021/03/18 03:38:14;;;;;;;;;;;;;;;;;;2091262;28;19921;-73
2021/03/18 03:39:16;;;;;;;;;;;;;;;;;;2091636;28;19921;-73
2021/03/18 03:40:17;;;;;;;;;;;;;;;;;;2091712;28;19946;-73
2021/03/18 03:41:18;;;;;;;;;;;;;;;;;;2092007;28;19959;-73
2021/03/18 03:42:20;;;;;;;;;;;;;;;;;;2091774;28;20375;-73
2021/03/18 03:43:22;;;;;;;;;;;;;;;;;;2099482;28;19920;-73
2021/03/18 03:44:23;;;;;;;;;;;;;;;;;;2082954;28;20016;-73
2021/03/18 03:45:24;;;;;;;;;;;;;;;;;;2082861;28;19928;-73
2021/03/18 03:46:25;;;;;;;;;;;;;;;;;;2091169;28;20003;-73
2021/03/18 03:47:26;;;;;;;;;;;;;;;;;;2091464;28;20388;-72
2021/03/18 03:48:31;;;;;;;;;;;;;;;;;;2091299;28;19932;-73
2021/03/18 03:49:32;;;;;;;;;;;;;;;;;;2091007;28;19921;-73
2021/03/18 03:50:34;;;;;;;;;;;;;;;;;;2099550;28;19970;-73
2021/03/18 03:51:55;;;;;;;;;;;;;;;;;;2090930;28;20409;-73
2021/03/18 03:53:10;;;;;;;;;;;;;;;;;;2075359;28;19971;-73
2021/03/18 03:54:14;;;;;;;;;;;;;;;;;;2091553;28;19921;-73
2021/03/18 03:55:25;;;;;;;;;;;;;;;;;;2090997;28;19927;-73
2021/03/18 03:56:55;;;;;;;;;;;;;;;;;;2091606;28;19960;-73
2021/03/18 03:58:01;;;;;;;;;;;;;;;;;;2074108;28;20404;-73
2021/03/18 03:59:05;;;;;;;;;;;;;;;;;;2074296;28;19973;-73
2021/03/18 04:00:08;;;;;;;;;;;;;;;;;;2091597;28;20372;-73
2021/03/18 04:01:28;;;;;;;;;;;;;;;;;;2091603;28;19920;-72
2021/03/18 04:02:30;;;;;;;;;;;;;;;;;;2099163;28;20360;-72
2021/03/18 04:03:33;;;;;;;;;;;;;;;;;;2098977;28;20412;-72
2021/03/18 04:04:41;;;;;;;;;;;;;;;;;;2099265;28;19924;-73
2021/03/18 04:05:43;;;;;;;;;;;;;;;;;;2098408;28;20048;-72
2021/03/18 04:06:44;;;;;;;;;;;;;;;;;;2091404;28;19965;-72
2021/03/18 04:07:45;;;;;;;;;;;;;;;;;;2091312;28;19921;-72
2021/03/18 04:08:47;;;;;;;;;;;;;;;;;;2091342;28;20372;-73
2021/03/18 04:09:49;;;;;;;;;;;;;;;;;;2091522;28;19921;-73
2021/03/18 04:10:52;;;;;;;;;;;;;;;;;;2091391;28;20306;-72
2021/03/18 04:11:55;;;;;;;;;;;;;;;;;;2099369;28;19921;-73
2021/03/18 04:12:57;;;;;;;;;;;;;;;;;;2099196;28;20003;-71
2021/03/18 04:13:58;;;;;;;;;;;;;;;;;;2091518;28;20007;-73
2021/03/18 04:15:05;;;;;;;;;;;;;;;;;;2091497;28;20026;-73
2021/03/18 04:16:06;;;;;;;;;;;;;;;;;;2091297;28;19921;-73
2021/03/18 04:17:10;;;;;;;;;;;;;;;;;;2099152;28;19975;-73
2021/03/18 04:18:11;;;;;;;;;;;;;;;;;;2090681;28;20381;-74
2021/03/18 04:19:14;;;;;;;;;;;;;;;;;;2091021;28;19967;-73
2021/03/18 04:20:16;;;;;;;;;;;;;;;;;;2091797;28;19966;-73
2021/03/18 04:21:19;;;;;;;;;;;;;;;;;;2098972;28;20462;-73
2021/03/18 04:22:21;;;;;;;;;;;;;;;;;;2098781;28;19953;-73
2021/03/18 04:23:22;;;;;;;;;;;;;;;;;;2091751;28;19921;-74
2021/03/18 04:24:24;;;;;;;;;;;;;;;;;;2091422;28;19982;-73
2021/03/18 04:25:27;;;;;;;;;;;;;;;;;;2090873;28;19921;-74
2021/03/18 04:26:29;;;;;;;;;;;;;;;;;;2083015;28;19928;-74
2021/03/18 04:27:31;;;;;;;;;;;;;;;;;;2090683;28;20426;-74
2021/03/18 04:28:33;;;;;;;;;;;;;;;;;;2091447;28;19925;-73
2021/03/18 04:29:37;;;;;;;;;;;;;;;;;;2099391;28;19960;-73
2021/03/18 04:30:39;;;;;;;;;;;;;;;;;;2082948;28;19921;-74
2021/03/18 04:31:41;;;;;;;;;;;;;;;;;;2083506;28;19967;-73
2021/03/18 04:32:43;;;;;;;;;;;;;;;;;;2091280;28;19921;-74
2021/03/18 04:33:45;;;;;;;;;;;;;;;;;;2091397;28;19921;-74
2021/03/18 04:34:47;;;;;;;;;;;;;;;;;;2090773;28;20447;-74
2021/03/18 04:35:48;;;;;;;;;;;;;;;;;;2090690;28;19925;-74
2021/03/18 04:36:49;;;;;;;;;;;;;;;;;;2091405;28;19927;-74
2021/03/18 04:37:50;;;;;;;;;;;;;;;;;;2091139;28;19982;-74
2021/03/18 04:38:55;;;;;;;;;;;;;;;;;;2091286;28;20385;-74
2021/03/18 04:39:57;;;;;;;;;;;;;;;;;;2091185;28;19988;-74
2021/03/18 04:40:58;;;;;;;;;;;;;;;;;;2090940;28;19974;-74
2021/03/18 04:42:00;;;;;;;;;;;;;;;;;;2082850;28;20023;-74
2021/03/18 04:43:02;;;;;;;;;;;;;;;;;;2090712;28;20325;-73
2021/03/18 04:44:04;;;;;;;;;;;;;;;;;;2091354;28;19920;-74
2021/03/18 04:45:05;;;;;;;;;;;;;;;;;;2099472;28;19949;-74
2021/03/18 04:46:06;;;;;;;;;;;;;;;;;;2099404;28;19920;-73
2021/03/18 04:47:07;;;;;;;;;;;;;;;;;;2091222;28;19921;-73
2021/03/18 04:48:08;;;;;;;;;;;;;;;;;;2091145;28;19966;-73
2021/03/18 04:49:09;;;;;;;;;;;;;;;;;;2091330;28;20413;-73
2021/03/18 04:50:12;;;;;;;;;;;;;;;;;;2091125;28;19921;-73
2021/03/18 04:51:13;;;;;;;;;;;;;;;;;;2091272;28;19928;-73
2021/03/18 04:52:17;;;;;;;;;;;;;;;;;;2091145;28;20356;-73
2021/03/18 04:53:19;;;;;;;;;;;;;;;;;;2091130;28;19931;-73
2021/03/18 04:54:20;;;;;;;;;;;;;;;;;;2091195;28;19968;-73
2021/03/18 04:55:21;;;;;;;;;;;;;;;;;;2098936;28;19969;-75
2021/03/18 04:56:23;;;;;;;;;;;;;;;;;;2098745;28;19960;-75
2021/03/18 04:57:25;;;;;;;;;;;;;;;;;;2090918;28;19921;-74
2021/03/18 04:58:26;;;;;;;;;;;;;;;;;;2091121;28;20015;-74
2021/03/18 04:59:28;;;;;;;;;;;;;;;;;;2098750;28;20083;-74
2021/03/18 05:00:30;;;;;;;;;;;;;;;;;;2098757;28;19924;-73
2021/03/18 05:01:31;;;;;;;;;;;;;;;;;;2090472;28;19974;-74
2021/03/18 05:02:33;;;;;;;;;;;;;;;;;;2090581;28;19921;-74
2021/03/18 05:03:44;;;;;;;;;;;;;;;;;;2091559;28;19921;-74
2021/03/18 05:04:45;;;;;;;;;;;;;;;;;;2091028;28;20368;-74
2021/03/18 05:05:47;;;;;;;;;;;;;;;;;;2091157;28;19966;-74
2021/03/18 05:06:52;;;;;;;;;;;;;;;;;;2090553;28;19925;-74
2021/03/18 05:07:53;;;;;;;;;;;;;;;;;;2090597;28;19970;-74
2021/03/18 05:08:55;;;;;;;;;;;;;;;;;;2091538;28;19927;-74
2021/03/18 05:09:56;;;;;;;;;;;;;;;;;;2091504;28;19956;-74
2021/03/18 05:10:58;;;;;;;;;;;;;;;;;;2091247;28;19920;-74
2021/03/18 05:12:00;;;;;;;;;;;;;;;;;;2090382;28;20368;-74
2021/03/18 05:13:04;;;;;;;;;;;;;;;;;;2090413;28;20364;-74
2021/03/18 05:14:07;;;;;;;;;;;;;;;;;;2090983;28;20365;-74
2021/03/18 05:15:08;;;;;;;;;;;;;;;;;;2091317;28;19924;-74
2021/03/18 05:16:10;;;;;;;;;;;;;;;;;;2090339;28;19920;-73
2021/03/18 05:17:11;;;;;;;;;;;;;;;;;;2082272;28;20014;-73
2021/03/18 05:18:13;;;;;;;;;;;;;;;;;;2074156;28;19929;-73
2021/03/18 05:19:15;;;;;;;;;;;;;;;;;;2091116;28;20008;-74
2021/03/18 05:20:17;;;;;;;;;;;;;;;;;;2098481;28;20019;-73
2021/03/18 05:21:19;;;;;;;;;;;;;;;;;;2091310;28;19928;-73
2021/03/18 05:22:21;;;;;;;;;;;;;;;;;;2090317;28;19964;-74
2021/03/18 05:23:23;;;;;;;;;;;;;;;;;;2089967;28;20019;-73
2021/03/18 05:24:24;;;;;;;;;;;;;;;;;;2098463;28;19920;-73
2021/03/18 05:25:28;;;;;;;;;;;;;;;;;;2098480;28;19921;-73
2021/03/18 05:26:29;;;;;;;;;;;;;;;;;;2090879;28;19920;-74
2021/03/18 05:27:30;;;;;;;;;;;;;;;;;;2091052;28;20019;-73
2021/03/18 05:28:31;;;;;;;;;;;;;;;;;;2091246;28;19955;-74
2021/03/18 05:29:32;;;;;;;;;;;;;;;;;;2091015;28;19965;-74
2021/03/18 05:30:34;;;;;;;;;;;;;;;;;;2098560;28;20331;-74
2021/03/18 05:31:35;;;;;;;;;;;;;;;;;;2098766;28;20364;-74
2021/03/18 05:32:36;;;;;;;;;;;;;;;;;;2090173;28;20429;-73
2021/03/18 05:33:37;;;;;;;;;;;;;;;;;;2098711;28;19958;-74
2021/03/18 05:34:38;;;;;;;;;;;;;;;;;;2098610;28;20279;-72
2021/03/18 05:35:40;;;;;;;;;;;;;;;;;;2090896;28;19921;-73
2021/03/18 05:36:41;;;;;;;;;;;;;;;;;;2090818;28;19933;-72
2021/03/18 05:37:42;;;;;;;;;;;;;;;;;;2090850;28;19927;-73
2021/03/18 05:38:43;;;;;;;;;;;;;;;;;;2090948;28;19975;-73
2021/03/18 05:39:44;;;;;;;;;;;;;;;;;;2081996;28;19967;-73
2021/03/18 05:40:48;;;;;;;;;;;;;;;;;;2082057;28;19928;-72
2021/03/18 05:41:49;;;;;;;;;;;;;;;;;;2090260;28;20249;-73
2021/03/18 05:42:51;;;;;;;;;;;;;;;;;;2090690;28;19970;-73
2021/03/18 05:43:52;;;;;;;;;;;;;;;;;;2090852;28;19921;-73
2021/03/18 05:44:53;;;;;;;;;;;;;;;;;;2090572;28;19921;-74
2021/03/18 05:45:54;;;;;;;;;;;;;;;;;;2090168;28;19921;-73
2021/03/18 05:46:57;;;;;;;;;;;;;;;;;;2090330;28;19920;-73
2021/03/18 05:47:59;;;;;;;;;;;;;;;;;;2098563;28;19928;-73
2021/03/18 05:49:03;;;;;;;;;;;;;;;;;;2097858;28;19922;-73
2021/03/18 05:50:06;;;;;;;;;;;;;;;;;;2098492;28;19920;-73
2021/03/18 05:51:09;;;;;;;;;;;;;;;;;;2089954;28;20412;-73
2021/03/18 05:52:11;;;;;;;;;;;;;;;;;;2082683;28;19925;-73
2021/03/18 05:53:12;;;;;;;;;;;;;;;;;;2090744;28;19990;-74
2021/03/18 05:54:14;;;;;;;;;;;;;;;;;;2090699;28;20390;-73
2021/03/18 05:55:16;;;;;;;;;;;;;;;;;;2090694;28;19997;-73
2021/03/18 05:56:21;;;;;;;;;;;;;;;;;;2098332;28;19920;-73
2021/03/18 05:57:22;;;;;;;;;;;;;;;;;;2097858;28;20431;-73
2021/03/18 05:58:24;;;;;;;;;;;;;;;;;;2090120;28;19956;-73
2021/03/18 05:59:25;;;;;;;;;;;;;;;;;;2090147;28;20367;-73
2021/03/18 06:00:28;;;;;;;;;;;;;;;;;;2091050;28;20007;-73
2021/03/18 06:01:29;;;;;;;;;;;;;;;;;;2090830;28;19921;-73
2021/03/18 06:02:31;;;;;;;;;;;;;;;;;;2090766;28;19928;-73
2021/03/18 06:03:32;;;;;;;;;;;;;;;;;;2090718;28;20409;-73
2021/03/18 06:04:34;;;;;;;;;;;;;;;;;;2098548;28;19967;-73
2021/03/18 06:05:35;;;;;;;;;;;;;;;;;;2098423;28;19921;-73
2021/03/18 06:06:37;;;;;;;;;;;;;;;;;;2090285;28;20016;-73
2021/03/18 06:07:43;;;;;;;;;;;;;;;;;;2090098;28;19921;-73
2021/03/18 06:08:44;;;;;;;;;;;;;;;;;;2090731;28;20249;-73
2021/03/18 06:09:45;;;;;;;;;;;;;;;;;;2090780;28;20001;-72
2021/03/18 06:10:46;;;;;;;;;;;;;;;;;;2090782;28;20020;-73
2021/03/18 06:11:47;;;;;;;;;;;;;;;;;;2090795;28;19928;-73
2021/03/18 06:12:53;;;;;;;;;;;;;;;;;;2090665;28;20024;-73
2021/03/18 06:13:54;;;;;;;;;;;;;;;;;;2090456;28;19921;-73
2021/03/18 06:14:55;;;;;;;;;;;;;;;;;;2082218;28;19965;-73
2021/03/18 06:15:57;;;;;;;;;;;;;;;;;;2090206;28;19921;-73
2021/03/18 06:16:58;;;;;;;;;;;;;;;;;;2098276;28;19955;-73
2021/03/18 06:18:00;;;;;;;;;;;;;;;;;;2098182;28;19924;-73
2021/03/18 06:19:03;;;;;;;;;;;;;;;;;;2090239;28;20015;-73
2021/03/18 06:20:04;;;;;;;;;;;;;;;;;;2090740;28;19968;-73
2021/03/18 06:21:07;;;;;;;;;;;;;;;;;;2090662;28;19967;-73
2021/03/18 06:22:08;;;;;;;;;;;;;;;;;;2090160;28;19932;-73
2021/03/18 06:23:09;;;;;;;;;;;;;;;;;;2081812;28;20057;-73
2021/03/18 06:24:10;;;;;;;;;;;;;;;;;;2090296;28;20346;-73
2021/03/18 06:25:28;;;;;;;;;;;;;;;;;;2098691;28;19928;-73
2021/03/18 06:26:33;;;;;;;;;;;;;;;;;;2095968;28;20315;-73
2021/03/18 06:27:34;;;;;;;;;;;;;;;;;;2089944;28;19960;-73
2021/03/18 06:28:35;;;;;;;;;;;;;;;;;;2090669;28;19920;-73
2021/03/18 06:29:40;;;;;;;;;;;;;;;;;;2090716;28;19920;-73
2021/03/18 06:30:59;;;;;;;;;;;;;;;;;;2090765;28;19925;-73
2021/03/18 06:32:21;;;;;;;;;;;;;;;;;;2091393;28;19974;-73
2021/03/18 06:33:23;;;;;;;;;;;;;;;;;;2090495;28;19973;-74
2021/03/18 06:34:37;;;;;;;;;;;;;;;;;;2098346;28;20011;-73
2021/03/18 06:35:38;;;;;;;;;;;;;;;;;;2097105;28;19963;-73
2021/03/18 06:36:39;;;;;;;;;;;;;;;;;;2091873;28;19928;-73
2021/03/18 06:37:46;;;;;;;;;;;;;;;;;;2092263;28;19921;-74
2021/03/18 06:38:58;;;;;;;;;;;;;;;;;;2092023;28;19975;-73
2021/03/18 06:40:10;;;;;;;;;;;;;;;;;;2092280;28;20015;-73
2021/03/18 06:41:11;;;;;;;;;;;;;;;;;;2092429;28;19963;-73
2021/03/18 06:42:12;;;;;;;;;;;;;;;;;;2092033;28;20312;-72
2021/03/18 06:43:13;;;;;;;;;;;;;;;;;;2092175;28;19924;-73
2021/03/18 06:44:19;;;;;;;;;;;;;;;;;;2092452;28;19920;-73
2021/03/18 06:45:20;;;;;;;;;;;;;;;;;;2092344;28;20360;-73
2021/03/18 06:46:22;;;;;;;;;;;;;;;;;;2092399;28;20016;-73
2021/03/18 06:47:23;;;;;;;;;;;;;;;;;;2083423;28;20057;-73
2021/03/18 06:48:24;;;;;;;;;;;;;;;;;;2083190;28;20012;-73
2021/03/18 06:49:25;;;;;;;;;;;;;;;;;;2099720;28;19920;-73
2021/03/18 06:50:46;;;;;;;;;;;;;;;;;;2099612;28;19924;-73
2021/03/18 06:52:19;;;;;;;;;;;;;;;;;;2092187;28;19920;-73
2021/03/18 06:53:23;;;;;;;;;;;;;;;;;;2074313;28;19921;-73
2021/03/18 06:54:24;;;;;;;;;;;;;;;;;;2075282;28;19926;-73
2021/03/18 06:55:25;;;;;;;;;;;;;;;;;;2075897;28;19922;-73
2021/03/18 06:56:26;;;;;;;;;;;;;;;;;;2083177;28;20320;-73
2021/03/18 06:57:27;;;;;;;;;;;;;;;;;;2082883;28;20360;-73
2021/03/18 06:58:28;;;;;;;;;;;;;;;;;;2075563;28;19932;-74
2021/03/18 06:59:30;;;;;;;;;;;;;;;;;;2075483;28;20357;-73
2021/03/18 07:00:35;;;;;;;;;;;;;;;;;;2083217;28;19971;-73
2021/03/18 07:01:37;;;;;;;;;;;;;;;;;;2082484;28;20414;-73
2021/03/18 07:02:41;;;;;;;;;;;;;;;;;;2075776;28;19922;-72
2021/03/18 07:03:42;;;;;;;;;;;;;;;;;;2075852;28;20253;-73
2021/03/18 07:04:47;;;;;;;;;;;;;;;;;;2075648;28;20273;-73
2021/03/18 07:05:48;;;;;;;;;;;;;;;;;;2075527;28;20028;-73
2021/03/18 07:06:51;;;;;;;;;;;;;;;;;;2083003;28;19928;-73
2021/03/18 07:07:52;;;;;;;;;;;;;;;;;;2082825;28;19921;-73
2021/03/18 07:09:05;;;;;;;;;;;;;;;;;;2082938;28;20376;-73
2021/03/18 07:10:07;;;;;;;;;;;;;;;;;;2081532;28;19921;-73